sensor_id;sensor_type;location;lat;lon;timestamp;P1;durP1;ratioP1;P2;durP2;ratioP2
2406;SDS011;37709;53.480;9.688;2024-01-30T00:01:22;9.83;;;8.00;;
2406;SDS011;37709;53.480;9.688;2024-01-30T00:03:49;8.70;;;7.90;;
2406;SDS011;37709;53.480;9.688;2024-01-30T00:06:18;9.70;;;8.30;;
2406;SDS011;37709;53.480;9.688;2024-01-30T00:08:49;9.05;;;8.18;;
2406;SDS011;37709;53.480;9.688;2024-01-30T00:11:17;10.20;;;8.10;;
2406;SDS011;37709;53.480;9.688;2024-01-30T00:13:44;8.70;;;7.90;;
2406;SDS011;37709;53.480;9.688;2024-01-30T00:16:21;9.37;;;7.70;;
2406;SDS011;37709;53.480;9.688;2024-01-30T00:18:53;8.47;;;7.53;;
2406;SDS011;37709;53.480;9.688;2024-01-30T00:21:22;7.93;;;7.13;;
2406;SDS011;37709;53.480;9.688;2024-01-30T00:23:50;9.17;;;8.00;;
2406;SDS011;37709;53.480;9.688;2024-01-30T00:26:17;8.60;;;7.73;;
2406;SDS011;37709;53.480;9.688;2024-01-30T00:28:44;9.63;;;7.67;;
2406;SDS011;37709;53.480;9.688;2024-01-30T00:31:11;12.17;;;8.70;;
2406;SDS011;37709;53.480;9.688;2024-01-30T00:33:40;9.47;;;7.60;;
2406;SDS011;37709;53.480;9.688;2024-01-30T00:36:08;12.00;;;7.93;;
2406;SDS011;37709;53.480;9.688;2024-01-30T00:38:37;7.77;;;7.00;;
2406;SDS011;37709;53.480;9.688;2024-01-30T00:41:04;9.40;;;7.40;;
2406;SDS011;37709;53.480;9.688;2024-01-30T00:43:31;8.33;;;6.83;;
2406;SDS011;37709;53.480;9.688;2024-01-30T00:45:59;8.20;;;7.40;;
2406;SDS011;37709;53.480;9.688;2024-01-30T00:48:27;10.20;;;7.70;;
2406;SDS011;37709;53.480;9.688;2024-01-30T00:50:54;7.67;;;6.90;;
2406;SDS011;37709;53.480;9.688;2024-01-30T00:53:22;7.90;;;6.60;;
2406;SDS011;37709;53.480;9.688;2024-01-30T00:55:49;7.60;;;6.53;;
2406;SDS011;37709;53.480;9.688;2024-01-30T00:58:16;8.03;;;6.60;;
2406;SDS011;37709;53.480;9.688;2024-01-30T01:00:46;8.23;;;7.43;;
2406;SDS011;37709;53.480;9.688;2024-01-30T01:03:13;9.30;;;8.07;;
2406;SDS011;37709;53.480;9.688;2024-01-30T01:05:41;9.00;;;7.77;;
2406;SDS011;37709;53.480;9.688;2024-01-30T01:08:08;8.10;;;7.40;;
2406;SDS011;37709;53.480;9.688;2024-01-30T01:10:36;9.73;;;7.20;;
2406;SDS011;37709;53.480;9.688;2024-01-30T01:13:03;8.60;;;7.03;;
2406;SDS011;37709;53.480;9.688;2024-01-30T01:15:31;8.37;;;7.40;;
2406;SDS011;37709;53.480;9.688;2024-01-30T01:17:58;7.43;;;6.70;;
2406;SDS011;37709;53.480;9.688;2024-01-30T01:20:26;8.20;;;7.13;;
2406;SDS011;37709;53.480;9.688;2024-01-30T01:22:53;9.97;;;7.20;;
2406;SDS011;37709;53.480;9.688;2024-01-30T01:25:21;8.20;;;7.40;;
2406;SDS011;37709;53.480;9.688;2024-01-30T01:27:48;8.63;;;7.73;;
2406;SDS011;37709;53.480;9.688;2024-01-30T01:30:18;7.23;;;6.53;;
2406;SDS011;37709;53.480;9.688;2024-01-30T01:32:48;8.80;;;6.40;;
2406;SDS011;37709;53.480;9.688;2024-01-30T01:35:24;8.73;;;7.23;;
2406;SDS011;37709;53.480;9.688;2024-01-30T01:37:52;8.20;;;7.40;;
2406;SDS011;37709;53.480;9.688;2024-01-30T01:40:23;8.20;;;7.40;;
2406;SDS011;37709;53.480;9.688;2024-01-30T01:42:52;9.10;;;6.77;;
2406;SDS011;37709;53.480;9.688;2024-01-30T01:45:21;7.80;;;7.00;;
2406;SDS011;37709;53.480;9.688;2024-01-30T01:47:51;8.17;;;7.27;;
2406;SDS011;37709;53.480;9.688;2024-01-30T01:50:20;7.60;;;6.80;;
2406;SDS011;37709;53.480;9.688;2024-01-30T01:52:49;9.10;;;7.87;;
2406;SDS011;37709;53.480;9.688;2024-01-30T01:55:18;9.07;;;8.13;;
2406;SDS011;37709;53.480;9.688;2024-01-30T01:57:53;7.80;;;7.00;;
2406;SDS011;37709;53.480;9.688;2024-01-30T02:00:21;8.20;;;7.10;;
2406;SDS011;37709;53.480;9.688;2024-01-30T02:02:50;8.10;;;7.30;;
2406;SDS011;37709;53.480;9.688;2024-01-30T02:05:18;8.40;;;7.60;;
2406;SDS011;37709;53.480;9.688;2024-01-30T02:07:46;7.70;;;7.00;;
2406;SDS011;37709;53.480;9.688;2024-01-30T02:10:13;8.23;;;6.80;;
2406;SDS011;37709;53.480;9.688;2024-01-30T02:12:41;8.27;;;7.03;;
2406;SDS011;37709;53.480;9.688;2024-01-30T02:15:13;8.33;;;7.27;;
2406;SDS011;37709;53.480;9.688;2024-01-30T02:17:41;9.17;;;7.53;;
2406;SDS011;37709;53.480;9.688;2024-01-30T02:23:02;9.70;;;7.70;;
2406;SDS011;37709;53.480;9.688;2024-01-30T02:25:30;7.90;;;7.10;;
2406;SDS011;37709;53.480;9.688;2024-01-30T02:28:02;8.10;;;7.30;;
2406;SDS011;37709;53.480;9.688;2024-01-30T02:30:30;9.40;;;7.33;;
2406;SDS011;37709;53.480;9.688;2024-01-30T02:32:57;8.50;;;7.60;;
2406;SDS011;37709;53.480;9.688;2024-01-30T02:35:24;7.63;;;6.83;;
2406;SDS011;37709;53.480;9.688;2024-01-30T02:37:52;9.40;;;8.00;;
2406;SDS011;37709;53.480;9.688;2024-01-30T02:40:20;9.37;;;8.47;;
2406;SDS011;37709;53.480;9.688;2024-01-30T02:42:47;7.73;;;7.03;;
2406;SDS011;37709;53.480;9.688;2024-01-30T02:45:15;8.33;;;7.60;;
2406;SDS011;37709;53.480;9.688;2024-01-30T02:47:42;8.13;;;7.33;;
2406;SDS011;37709;53.480;9.688;2024-01-30T02:50:10;8.97;;;8.10;;
2406;SDS011;37709;53.480;9.688;2024-01-30T02:52:38;10.90;;;8.77;;
2406;SDS011;37709;53.480;9.688;2024-01-30T02:55:05;11.77;;;8.33;;
2406;SDS011;37709;53.480;9.688;2024-01-30T02:57:34;11.47;;;8.30;;
2406;SDS011;37709;53.480;9.688;2024-01-30T03:00:01;9.00;;;7.83;;
2406;SDS011;37709;53.480;9.688;2024-01-30T03:02:30;10.87;;;8.43;;
2406;SDS011;37709;53.480;9.688;2024-01-30T03:04:59;8.93;;;8.00;;
2406;SDS011;37709;53.480;9.688;2024-01-30T03:07:26;8.70;;;7.90;;
2406;SDS011;37709;53.480;9.688;2024-01-30T03:09:54;9.33;;;7.83;;
2406;SDS011;37709;53.480;9.688;2024-01-30T03:12:22;10.07;;;8.77;;
2406;SDS011;37709;53.480;9.688;2024-01-30T03:14:50;9.43;;;8.40;;
2406;SDS011;37709;53.480;9.688;2024-01-30T03:17:18;9.97;;;8.40;;
2406;SDS011;37709;53.480;9.688;2024-01-30T03:19:50;10.37;;;8.40;;
2406;SDS011;37709;53.480;9.688;2024-01-30T03:22:18;10.63;;;9.13;;
2406;SDS011;37709;53.480;9.688;2024-01-30T03:24:45;14.40;;;9.13;;
2406;SDS011;37709;53.480;9.688;2024-01-30T03:27:13;9.67;;;8.67;;
2406;SDS011;37709;53.480;9.688;2024-01-30T03:29:40;10.20;;;9.20;;
2406;SDS011;37709;53.480;9.688;2024-01-30T03:32:10;12.80;;;9.53;;
2406;SDS011;37709;53.480;9.688;2024-01-30T03:34:37;10.40;;;8.63;;
2406;SDS011;37709;53.480;9.688;2024-01-30T03:37:05;12.30;;;8.70;;
2406;SDS011;37709;53.480;9.688;2024-01-30T03:39:33;10.10;;;9.10;;
2406;SDS011;37709;53.480;9.688;2024-01-30T03:42:00;10.23;;;9.20;;
2406;SDS011;37709;53.480;9.688;2024-01-30T03:44:28;10.30;;;9.23;;
2406;SDS011;37709;53.480;9.688;2024-01-30T03:46:55;10.90;;;9.50;;
2406;SDS011;37709;53.480;9.688;2024-01-30T03:49:24;10.73;;;9.63;;
2406;SDS011;37709;53.480;9.688;2024-01-30T03:51:52;12.73;;;9.63;;
2406;SDS011;37709;53.480;9.688;2024-01-30T03:54:19;9.80;;;8.90;;
2406;SDS011;37709;53.480;9.688;2024-01-30T03:56:47;10.67;;;9.57;;
2406;SDS011;37709;53.480;9.688;2024-01-30T03:59:14;12.20;;;10.27;;
2406;SDS011;37709;53.480;9.688;2024-01-30T04:01:41;11.27;;;9.13;;
2406;SDS011;37709;53.480;9.688;2024-01-30T04:04:09;11.27;;;10.07;;
2406;SDS011;37709;53.480;9.688;2024-01-30T04:06:36;13.73;;;9.87;;
2406;SDS011;37709;53.480;9.688;2024-01-30T04:09:04;13.20;;;10.70;;
2406;SDS011;37709;53.480;9.688;2024-01-30T04:11:31;10.77;;;9.63;;
2406;SDS011;37709;53.480;9.688;2024-01-30T04:13:59;12.60;;;9.90;;
2406;SDS011;37709;53.480;9.688;2024-01-30T04:16:27;11.70;;;10.10;;
2406;SDS011;37709;53.480;9.688;2024-01-30T04:18:56;12.03;;;10.67;;
2406;SDS011;37709;53.480;9.688;2024-01-30T04:21:23;13.70;;;10.33;;
2406;SDS011;37709;53.480;9.688;2024-01-30T04:23:51;11.70;;;10.50;;
2406;SDS011;37709;53.480;9.688;2024-01-30T04:26:19;10.67;;;9.57;;
2406;SDS011;37709;53.480;9.688;2024-01-30T04:28:46;16.13;;;12.03;;
2406;SDS011;37709;53.480;9.688;2024-01-30T04:31:14;11.83;;;9.93;;
2406;SDS011;37709;53.480;9.688;2024-01-30T04:33:41;11.40;;;10.30;;
2406;SDS011;37709;53.480;9.688;2024-01-30T04:36:09;12.90;;;10.90;;
2406;SDS011;37709;53.480;9.688;2024-01-30T04:38:39;14.40;;;10.70;;
2406;SDS011;37709;53.480;9.688;2024-01-30T04:41:06;14.20;;;11.90;;
2406;SDS011;37709;53.480;9.688;2024-01-30T04:43:35;12.37;;;11.07;;
2406;SDS011;37709;53.480;9.688;2024-01-30T04:46:03;13.63;;;11.00;;
2406;SDS011;37709;53.480;9.688;2024-01-30T04:48:31;11.23;;;10.00;;
2406;SDS011;37709;53.480;9.688;2024-01-30T04:50:59;11.53;;;10.33;;
2406;SDS011;37709;53.480;9.688;2024-01-30T04:53:30;12.03;;;10.87;;
2406;SDS011;37709;53.480;9.688;2024-01-30T04:55:58;13.63;;;11.07;;
2406;SDS011;37709;53.480;9.688;2024-01-30T04:58:25;13.10;;;11.60;;
2406;SDS011;37709;53.480;9.688;2024-01-30T05:00:53;12.53;;;10.63;;
2406;SDS011;37709;53.480;9.688;2024-01-30T05:03:21;13.37;;;11.27;;
2406;SDS011;37709;53.480;9.688;2024-01-30T05:05:50;12.00;;;10.77;;
2406;SDS011;37709;53.480;9.688;2024-01-30T05:08:18;12.40;;;11.10;;
2406;SDS011;37709;53.480;9.688;2024-01-30T05:10:45;13.37;;;12.07;;
2406;SDS011;37709;53.480;9.688;2024-01-30T05:13:13;13.20;;;11.40;;
2406;SDS011;37709;53.480;9.688;2024-01-30T05:15:41;13.93;;;12.40;;
2406;SDS011;37709;53.480;9.688;2024-01-30T05:18:09;12.80;;;11.50;;
2406;SDS011;37709;53.480;9.688;2024-01-30T05:20:36;15.00;;;11.73;;
2406;SDS011;37709;53.480;9.688;2024-01-30T05:23:04;12.80;;;10.67;;
2406;SDS011;37709;53.480;9.688;2024-01-30T05:25:31;13.57;;;11.23;;
2406;SDS011;37709;53.480;9.688;2024-01-30T05:27:58;13.70;;;11.87;;
2406;SDS011;37709;53.480;9.688;2024-01-30T05:30:26;12.07;;;10.87;;
2406;SDS011;37709;53.480;9.688;2024-01-30T05:32:55;13.73;;;11.90;;
2406;SDS011;37709;53.480;9.688;2024-01-30T05:35:23;15.50;;;12.63;;
2406;SDS011;37709;53.480;9.688;2024-01-30T05:37:50;13.03;;;11.63;;
2406;SDS011;37709;53.480;9.688;2024-01-30T05:40:18;13.87;;;12.37;;
2406;SDS011;37709;53.480;9.688;2024-01-30T05:42:47;13.83;;;12.03;;
2406;SDS011;37709;53.480;9.688;2024-01-30T05:45:15;13.73;;;12.30;;
2406;SDS011;37709;53.480;9.688;2024-01-30T05:47:42;13.47;;;12.07;;
2406;SDS011;37709;53.480;9.688;2024-01-30T05:50:09;16.17;;;11.80;;
2406;SDS011;37709;53.480;9.688;2024-01-30T05:52:37;13.80;;;12.17;;
2406;SDS011;37709;53.480;9.688;2024-01-30T05:55:05;14.80;;;12.80;;
2406;SDS011;37709;53.480;9.688;2024-01-30T05:57:33;14.13;;;11.77;;
2406;SDS011;37709;53.480;9.688;2024-01-30T06:00:00;13.63;;;11.20;;
2406;SDS011;37709;53.480;9.688;2024-01-30T06:02:30;16.03;;;12.10;;
2406;SDS011;37709;53.480;9.688;2024-01-30T06:04:58;14.10;;;12.43;;
2406;SDS011;37709;53.480;9.688;2024-01-30T06:07:25;12.73;;;11.00;;
2406;SDS011;37709;53.480;9.688;2024-01-30T06:09:56;13.77;;;12.37;;
2406;SDS011;37709;53.480;9.688;2024-01-30T06:12:24;15.37;;;11.20;;
2406;SDS011;37709;53.480;9.688;2024-01-30T06:14:54;13.13;;;11.33;;
2406;SDS011;37709;53.480;9.688;2024-01-30T06:17:23;12.53;;;11.23;;
2406;SDS011;37709;53.480;9.688;2024-01-30T06:19:51;12.80;;;11.50;;
2406;SDS011;37709;53.480;9.688;2024-01-30T06:22:18;14.03;;;11.00;;
2406;SDS011;37709;53.480;9.688;2024-01-30T06:24:46;12.10;;;10.90;;
2406;SDS011;37709;53.480;9.688;2024-01-30T06:27:17;13.50;;;12.13;;
2406;SDS011;37709;53.480;9.688;2024-01-30T06:29:44;14.83;;;11.30;;
2406;SDS011;37709;53.480;9.688;2024-01-30T06:32:13;12.30;;;11.00;;
2406;SDS011;37709;53.480;9.688;2024-01-30T06:34:40;11.80;;;10.60;;
2406;SDS011;37709;53.480;9.688;2024-01-30T06:37:08;13.47;;;11.10;;
2406;SDS011;37709;53.480;9.688;2024-01-30T06:39:35;14.33;;;11.60;;
2406;SDS011;37709;53.480;9.688;2024-01-30T06:42:03;15.30;;;11.40;;
2406;SDS011;37709;53.480;9.688;2024-01-30T06:44:31;13.20;;;11.80;;
2406;SDS011;37709;53.480;9.688;2024-01-30T06:46:59;14.37;;;12.30;;
2406;SDS011;37709;53.480;9.688;2024-01-30T06:49:28;14.00;;;12.33;;
2406;SDS011;37709;53.480;9.688;2024-01-30T06:51:56;15.07;;;12.70;;
2406;SDS011;37709;53.480;9.688;2024-01-30T06:54:23;13.53;;;12.07;;
2406;SDS011;37709;53.480;9.688;2024-01-30T06:56:51;14.00;;;11.90;;
2406;SDS011;37709;53.480;9.688;2024-01-30T06:59:18;14.37;;;12.87;;
2406;SDS011;37709;53.480;9.688;2024-01-30T07:01:46;13.87;;;12.47;;
2406;SDS011;37709;53.480;9.688;2024-01-30T07:04:13;12.40;;;11.00;;
2406;SDS011;37709;53.480;9.688;2024-01-30T07:06:41;15.20;;;12.47;;
2406;SDS011;37709;53.480;9.688;2024-01-30T07:09:10;12.83;;;11.57;;
2406;SDS011;37709;53.480;9.688;2024-01-30T07:11:37;14.77;;;13.00;;
2406;SDS011;37709;53.480;9.688;2024-01-30T07:14:05;13.47;;;12.17;;
2406;SDS011;37709;53.480;9.688;2024-01-30T07:16:33;16.27;;;12.60;;
2406;SDS011;37709;53.480;9.688;2024-01-30T07:19:00;15.67;;;13.67;;
2406;SDS011;37709;53.480;9.688;2024-01-30T07:21:28;13.83;;;12.43;;
2406;SDS011;37709;53.480;9.688;2024-01-30T07:23:56;15.53;;;13.10;;
2406;SDS011;37709;53.480;9.688;2024-01-30T07:26:24;15.87;;;13.00;;
2406;SDS011;37709;53.480;9.688;2024-01-30T07:28:51;15.80;;;12.93;;
2406;SDS011;37709;53.480;9.688;2024-01-30T07:31:19;13.70;;;12.23;;
2406;SDS011;37709;53.480;9.688;2024-01-30T07:33:47;15.40;;;12.17;;
2406;SDS011;37709;53.480;9.688;2024-01-30T07:36:15;15.00;;;12.50;;
2406;SDS011;37709;53.480;9.688;2024-01-30T07:38:42;14.93;;;12.20;;
2406;SDS011;37709;53.480;9.688;2024-01-30T07:41:10;13.77;;;11.80;;
2406;SDS011;37709;53.480;9.688;2024-01-30T07:43:38;14.47;;;11.73;;
2406;SDS011;37709;53.480;9.688;2024-01-30T07:46:05;13.30;;;11.90;;
2406;SDS011;37709;53.480;9.688;2024-01-30T07:48:33;13.33;;;11.83;;
2406;SDS011;37709;53.480;9.688;2024-01-30T07:51:01;12.80;;;11.50;;
2406;SDS011;37709;53.480;9.688;2024-01-30T07:53:29;13.03;;;11.63;;
2406;SDS011;37709;53.480;9.688;2024-01-30T07:55:57;13.43;;;12.03;;
2406;SDS011;37709;53.480;9.688;2024-01-30T07:58:24;15.93;;;12.67;;
2406;SDS011;37709;53.480;9.688;2024-01-30T08:00:54;12.80;;;11.30;;
2406;SDS011;37709;53.480;9.688;2024-01-30T08:03:23;13.37;;;11.30;;
2406;SDS011;37709;53.480;9.688;2024-01-30T08:05:51;18.10;;;12.90;;
2406;SDS011;37709;53.480;9.688;2024-01-30T08:08:18;14.07;;;11.87;;
2406;SDS011;37709;53.480;9.688;2024-01-30T08:10:46;13.13;;;11.83;;
2406;SDS011;37709;53.480;9.688;2024-01-30T08:13:15;13.47;;;12.07;;
2406;SDS011;37709;53.480;9.688;2024-01-30T08:15:42;12.67;;;11.30;;
2406;SDS011;37709;53.480;9.688;2024-01-30T08:18:10;15.57;;;12.13;;
2406;SDS011;37709;53.480;9.688;2024-01-30T08:20:54;12.30;;;10.97;;
2406;SDS011;37709;53.480;9.688;2024-01-30T08:23:21;15.13;;;10.27;;
2406;SDS011;37709;53.480;9.688;2024-01-30T08:25:48;13.60;;;12.30;;
2406;SDS011;37709;53.480;9.688;2024-01-30T08:28:16;12.40;;;11.10;;
2406;SDS011;37709;53.480;9.688;2024-01-30T08:30:47;12.40;;;11.10;;
2406;SDS011;37709;53.480;9.688;2024-01-30T08:33:14;14.10;;;12.10;;
2406;SDS011;37709;53.480;9.688;2024-01-30T08:35:42;12.07;;;10.83;;
2406;SDS011;37709;53.480;9.688;2024-01-30T08:38:09;11.90;;;10.73;;
2406;SDS011;37709;53.480;9.688;2024-01-30T08:40:39;17.23;;;12.20;;
2406;SDS011;37709;53.480;9.688;2024-01-30T08:43:06;13.77;;;11.70;;
2406;SDS011;37709;53.480;9.688;2024-01-30T08:45:35;12.20;;;10.97;;
2406;SDS011;37709;53.480;9.688;2024-01-30T08:48:04;12.80;;;11.33;;
2406;SDS011;37709;53.480;9.688;2024-01-30T08:50:32;13.93;;;11.10;;
2406;SDS011;37709;53.480;9.688;2024-01-30T08:52:59;13.30;;;10.70;;
2406;SDS011;37709;53.480;9.688;2024-01-30T08:55:27;11.60;;;10.40;;
2406;SDS011;37709;53.480;9.688;2024-01-30T08:57:55;10.87;;;9.77;;
2406;SDS011;37709;53.480;9.688;2024-01-30T09:00:23;13.97;;;12.47;;
2406;SDS011;37709;53.480;9.688;2024-01-30T09:02:51;12.53;;;11.23;;
2406;SDS011;37709;53.480;9.688;2024-01-30T09:05:18;13.70;;;9.80;;
2406;SDS011;37709;53.480;9.688;2024-01-30T09:07:45;11.43;;;9.10;;
2406;SDS011;37709;53.480;9.688;2024-01-30T09:10:13;10.83;;;9.70;;
2406;SDS011;37709;53.480;9.688;2024-01-30T09:12:43;10.83;;;9.70;;
2406;SDS011;37709;53.480;9.688;2024-01-30T09:15:10;11.60;;;10.40;;
2406;SDS011;37709;53.480;9.688;2024-01-30T09:17:38;12.90;;;10.57;;
2406;SDS011;37709;53.480;9.688;2024-01-30T09:20:06;11.43;;;9.80;;
2406;SDS011;37709;53.480;9.688;2024-01-30T09:22:34;11.90;;;10.47;;
2406;SDS011;37709;53.480;9.688;2024-01-30T09:25:02;11.30;;;10.17;;
2406;SDS011;37709;53.480;9.688;2024-01-30T09:27:29;10.53;;;9.43;;
2406;SDS011;37709;53.480;9.688;2024-01-30T09:29:58;10.30;;;9.30;;
2406;SDS011;37709;53.480;9.688;2024-01-30T09:32:26;10.27;;;9.20;;
2406;SDS011;37709;53.480;9.688;2024-01-30T09:34:53;9.43;;;8.40;;
2406;SDS011;37709;53.480;9.688;2024-01-30T09:37:20;10.20;;;9.17;;
2406;SDS011;37709;53.480;9.688;2024-01-30T09:39:51;9.60;;;8.60;;
2406;SDS011;37709;53.480;9.688;2024-01-30T09:44:58;9.43;;;8.30;;
2406;SDS011;37709;53.480;9.688;2024-01-30T09:47:26;11.27;;;10.13;;
2406;SDS011;37709;53.480;9.688;2024-01-30T09:49:54;11.00;;;9.90;;
2406;SDS011;37709;53.480;9.688;2024-01-30T09:52:23;9.90;;;8.87;;
2406;SDS011;37709;53.480;9.688;2024-01-30T09:54:51;10.47;;;9.47;;
2406;SDS011;37709;53.480;9.688;2024-01-30T09:57:19;10.13;;;9.13;;
2406;SDS011;37709;53.480;9.688;2024-01-30T09:59:48;11.67;;;10.47;;
2406;SDS011;37709;53.480;9.688;2024-01-30T10:02:15;10.97;;;9.00;;
2406;SDS011;37709;53.480;9.688;2024-01-30T10:04:43;10.90;;;9.17;;
2406;SDS011;37709;53.480;9.688;2024-01-30T10:07:11;10.33;;;8.90;;
2406;SDS011;37709;53.480;9.688;2024-01-30T10:09:39;10.67;;;9.17;;
2406;SDS011;37709;53.480;9.688;2024-01-30T10:12:08;8.87;;;7.97;;
2406;SDS011;37709;53.480;9.688;2024-01-30T10:14:39;10.70;;;9.60;;
2406;SDS011;37709;53.480;9.688;2024-01-30T10:17:07;8.93;;;8.03;;
2406;SDS011;37709;53.480;9.688;2024-01-30T10:19:47;11.13;;;8.60;;
2406;SDS011;37709;53.480;9.688;2024-01-30T10:22:15;9.47;;;8.67;;
2406;SDS011;37709;53.480;9.688;2024-01-30T10:24:44;9.40;;;8.40;;
2406;SDS011;37709;53.480;9.688;2024-01-30T10:27:14;11.70;;;9.97;;
2406;SDS011;37709;53.480;9.688;2024-01-30T10:29:42;10.40;;;8.27;;
2406;SDS011;37709;53.480;9.688;2024-01-30T10:32:09;11.77;;;8.80;;
2406;SDS011;37709;53.480;9.688;2024-01-30T10:34:37;9.00;;;8.10;;
2406;SDS011;37709;53.480;9.688;2024-01-30T10:37:08;11.77;;;8.43;;
2406;SDS011;37709;53.480;9.688;2024-01-30T10:39:43;9.93;;;8.90;;
2406;SDS011;37709;53.480;9.688;2024-01-30T10:42:12;9.27;;;8.37;;
2406;SDS011;37709;53.480;9.688;2024-01-30T10:44:44;9.93;;;9.00;;
2406;SDS011;37709;53.480;9.688;2024-01-30T10:47:21;10.00;;;8.97;;
2406;SDS011;37709;53.480;9.688;2024-01-30T10:49:55;9.93;;;9.13;;
2406;SDS011;37709;53.480;9.688;2024-01-30T10:52:23;9.37;;;8.47;;
2406;SDS011;37709;53.480;9.688;2024-01-30T10:54:54;9.93;;;8.70;;
2406;SDS011;37709;53.480;9.688;2024-01-30T10:57:31;10.23;;;9.23;;
2406;SDS011;37709;53.480;9.688;2024-01-30T11:00:06;9.23;;;8.23;;
2406;SDS011;37709;53.480;9.688;2024-01-30T11:02:38;10.97;;;8.40;;
2406;SDS011;37709;53.480;9.688;2024-01-30T11:05:07;9.43;;;8.07;;
2406;SDS011;37709;53.480;9.688;2024-01-30T11:07:35;10.10;;;9.10;;
2406;SDS011;37709;53.480;9.688;2024-01-30T11:10:05;9.93;;;9.00;;
2406;SDS011;37709;53.480;9.688;2024-01-30T11:12:39;10.93;;;8.57;;
2406;SDS011;37709;53.480;9.688;2024-01-30T11:15:15;10.90;;;9.80;;
2406;SDS011;37709;53.480;9.688;2024-01-30T11:17:45;10.53;;;9.43;;
2406;SDS011;37709;53.480;9.688;2024-01-30T11:22:50;10.47;;;8.60;;
2406;SDS011;37709;53.480;9.688;2024-01-30T11:25:22;9.93;;;8.93;;
2406;SDS011;37709;53.480;9.688;2024-01-30T11:27:51;10.60;;;8.63;;
2406;SDS011;37709;53.480;9.688;2024-01-30T11:30:28;10.30;;;9.30;;
2406;SDS011;37709;53.480;9.688;2024-01-30T11:33:08;9.40;;;8.50;;
2406;SDS011;37709;53.480;9.688;2024-01-30T11:35:39;13.33;;;9.67;;
2406;SDS011;37709;53.480;9.688;2024-01-30T11:38:13;11.73;;;8.70;;
2406;SDS011;37709;53.480;9.688;2024-01-30T11:40:44;10.07;;;9.03;;
2406;SDS011;37709;53.480;9.688;2024-01-30T11:43:12;11.33;;;8.90;;
2406;SDS011;37709;53.480;9.688;2024-01-30T11:45:39;10.53;;;8.50;;
2406;SDS011;37709;53.480;9.688;2024-01-30T11:48:13;9.47;;;8.53;;
2406;SDS011;37709;53.480;9.688;2024-01-30T11:50:41;10.57;;;7.97;;
2406;SDS011;37709;53.480;9.688;2024-01-30T11:53:11;10.43;;;9.23;;
2406;SDS011;37709;53.480;9.688;2024-01-30T11:55:38;11.40;;;8.70;;
2406;SDS011;37709;53.480;9.688;2024-01-30T11:58:06;10.00;;;9.00;;
2406;SDS011;37709;53.480;9.688;2024-01-30T12:00:33;11.20;;;9.50;;
2406;SDS011;37709;53.480;9.688;2024-01-30T12:03:02;12.23;;;8.50;;
2406;SDS011;37709;53.480;9.688;2024-01-30T12:05:31;10.03;;;9.07;;
2406;SDS011;37709;53.480;9.688;2024-01-30T12:07:59;9.87;;;8.87;;
2406;SDS011;37709;53.480;9.688;2024-01-30T12:10:29;9.60;;;8.50;;
2406;SDS011;37709;53.480;9.688;2024-01-30T12:12:58;9.60;;;8.47;;
2406;SDS011;37709;53.480;9.688;2024-01-30T12:15:26;9.07;;;8.20;;
2406;SDS011;37709;53.480;9.688;2024-01-30T12:18:03;10.13;;;8.47;;
2406;SDS011;37709;53.480;9.688;2024-01-30T12:20:34;9.87;;;8.87;;
2406;SDS011;37709;53.480;9.688;2024-01-30T12:23:02;10.70;;;9.70;;
2406;SDS011;37709;53.480;9.688;2024-01-30T12:25:30;10.37;;;9.47;;
2406;SDS011;37709;53.480;9.688;2024-01-30T12:27:58;10.50;;;8.70;;
2406;SDS011;37709;53.480;9.688;2024-01-30T12:30:25;9.00;;;7.73;;
2406;SDS011;37709;53.480;9.688;2024-01-30T12:32:55;8.50;;;7.60;;
2406;SDS011;37709;53.480;9.688;2024-01-30T12:35:23;9.70;;;8.80;;
2406;SDS011;37709;53.480;9.688;2024-01-30T12:37:50;9.57;;;8.57;;
2406;SDS011;37709;53.480;9.688;2024-01-30T12:40:18;9.33;;;8.43;;
2406;SDS011;37709;53.480;9.688;2024-01-30T12:42:46;14.30;;;9.50;;
2406;SDS011;37709;53.480;9.688;2024-01-30T12:45:17;9.20;;;8.20;;
2406;SDS011;37709;53.480;9.688;2024-01-30T12:47:49;8.40;;;7.63;;
2406;SDS011;37709;53.480;9.688;2024-01-30T12:50:21;9.03;;;8.23;;
2406;SDS011;37709;53.480;9.688;2024-01-30T12:52:49;9.30;;;8.40;;
2406;SDS011;37709;53.480;9.688;2024-01-30T12:55:16;8.70;;;7.90;;
2406;SDS011;37709;53.480;9.688;2024-01-30T12:57:44;10.43;;;8.43;;
2406;SDS011;37709;53.480;9.688;2024-01-30T13:00:12;9.00;;;8.20;;
2406;SDS011;37709;53.480;9.688;2024-01-30T13:02:39;10.43;;;8.50;;
2406;SDS011;37709;53.480;9.688;2024-01-30T13:05:09;11.00;;;8.27;;
2406;SDS011;37709;53.480;9.688;2024-01-30T13:07:37;8.90;;;8.00;;
2406;SDS011;37709;53.480;9.688;2024-01-30T13:10:05;13.63;;;8.37;;
2406;SDS011;37709;53.480;9.688;2024-01-30T13:12:33;9.60;;;8.67;;
2406;SDS011;37709;53.480;9.688;2024-01-30T13:15:01;10.43;;;8.97;;
2406;SDS011;37709;53.480;9.688;2024-01-30T13:17:32;11.33;;;8.43;;
2406;SDS011;37709;53.480;9.688;2024-01-30T13:20:00;8.50;;;7.60;;
2406;SDS011;37709;53.480;9.688;2024-01-30T13:22:37;8.33;;;7.50;;
2406;SDS011;37709;53.480;9.688;2024-01-30T13:25:06;9.10;;;8.20;;
2406;SDS011;37709;53.480;9.688;2024-01-30T13:27:34;10.40;;;8.83;;
2406;SDS011;37709;53.480;9.688;2024-01-30T13:30:02;9.07;;;8.17;;
2406;SDS011;37709;53.480;9.688;2024-01-30T13:32:31;9.43;;;8.43;;
2406;SDS011;37709;53.480;9.688;2024-01-30T13:34:58;11.30;;;9.33;;
2406;SDS011;37709;53.480;9.688;2024-01-30T13:37:26;9.40;;;8.37;;
2406;SDS011;37709;53.480;9.688;2024-01-30T13:39:53;10.33;;;9.30;;
2406;SDS011;37709;53.480;9.688;2024-01-30T13:42:21;11.40;;;9.10;;
2406;SDS011;37709;53.480;9.688;2024-01-30T13:44:48;9.20;;;8.03;;
2406;SDS011;37709;53.480;9.688;2024-01-30T13:47:16;11.90;;;8.07;;
2406;SDS011;37709;53.480;9.688;2024-01-30T13:49:45;9.23;;;8.33;;
2406;SDS011;37709;53.480;9.688;2024-01-30T13:52:13;10.83;;;8.33;;
2406;SDS011;37709;53.480;9.688;2024-01-30T13:54:41;10.63;;;9.37;;
2406;SDS011;37709;53.480;9.688;2024-01-30T13:57:09;9.17;;;8.20;;
2406;SDS011;37709;53.480;9.688;2024-01-30T13:59:38;11.43;;;8.47;;
2406;SDS011;37709;53.480;9.688;2024-01-30T14:02:05;10.50;;;8.50;;
2406;SDS011;37709;53.480;9.688;2024-01-30T14:04:36;11.73;;;8.33;;
2406;SDS011;37709;53.480;9.688;2024-01-30T14:07:05;9.17;;;8.27;;
2406;SDS011;37709;53.480;9.688;2024-01-30T14:09:33;9.73;;;8.80;;
2406;SDS011;37709;53.480;9.688;2024-01-30T14:12:01;10.57;;;8.23;;
2406;SDS011;37709;53.480;9.688;2024-01-30T14:14:29;9.30;;;8.27;;
2406;SDS011;37709;53.480;9.688;2024-01-30T14:16:56;12.33;;;8.70;;
2406;SDS011;37709;53.480;9.688;2024-01-30T14:19:23;11.00;;;9.23;;
2406;SDS011;37709;53.480;9.688;2024-01-30T14:21:50;12.70;;;8.17;;
2406;SDS011;37709;53.480;9.688;2024-01-30T14:24:18;10.17;;;8.63;;
2406;SDS011;37709;53.480;9.688;2024-01-30T14:26:45;8.30;;;7.50;;
2406;SDS011;37709;53.480;9.688;2024-01-30T14:29:13;9.03;;;8.13;;
2406;SDS011;37709;53.480;9.688;2024-01-30T14:31:40;10.47;;;9.47;;
2406;SDS011;37709;53.480;9.688;2024-01-30T14:34:08;9.63;;;8.73;;
2406;SDS011;37709;53.480;9.688;2024-01-30T14:36:37;9.10;;;8.20;;
2406;SDS011;37709;53.480;9.688;2024-01-30T14:39:05;10.93;;;8.70;;
2406;SDS011;37709;53.480;9.688;2024-01-30T14:41:33;8.80;;;7.93;;
2406;SDS011;37709;53.480;9.688;2024-01-30T14:44:00;9.50;;;8.50;;
2406;SDS011;37709;53.480;9.688;2024-01-30T14:46:30;10.67;;;8.13;;
2406;SDS011;37709;53.480;9.688;2024-01-30T14:48:58;9.33;;;8.07;;
2406;SDS011;37709;53.480;9.688;2024-01-30T14:51:26;9.70;;;8.70;;
2406;SDS011;37709;53.480;9.688;2024-01-30T14:53:53;9.63;;;8.77;;
2406;SDS011;37709;53.480;9.688;2024-01-30T14:56:20;8.83;;;8.03;;
2406;SDS011;37709;53.480;9.688;2024-01-30T14:58:48;10.10;;;8.20;;
2406;SDS011;37709;53.480;9.688;2024-01-30T15:01:15;8.63;;;7.73;;
2406;SDS011;37709;53.480;9.688;2024-01-30T15:03:43;11.70;;;8.20;;